Time;durP1;ratioP1;P1;durP2;ratioP2;P2;SDS_P1;SDS_P2;PMS_P1;PMS_P2;Temp;Humidity;BMP_temperature;BMP_pressure;BME280_temperature;BME280_humidity;BME280_pressure;Samples;Min_cycle;Max_cycle;Signal;HPM_P1;HPM_P2
2023/04/28 00:02:29;;;;;;;16.60;9.00;;;;;;;2.76;58.08;100653.04;131029;1266;107555;-78
2023/04/28 00:05:34;;;;;;;18.40;9.80;;;;;;;2.71;58.26;100651.36;130999;1251;107502;-77
2023/04/28 00:08:40;;;;;;;17.70;9.70;;;;;;;2.66;58.53;100655.58;130993;1251;106468;-77
2023/04/28 00:11:47;;;;;;;18.40;9.80;;;;;;;2.62;58.46;100653.86;131072;1254;107474;-77
2023/04/28 00:14:53;;;;;;;17.10;9.20;;;;;;;2.62;58.56;100653.34;131147;1257;107167;-77
2023/04/28 00:17:58;;;;;;;18.10;9.60;;;;;;;2.63;58.57;100654.17;131325;1253;107641;-76
2023/04/28 00:21:04;;;;;;;16.70;9.90;;;;;;;2.61;58.58;100655.52;131280;1251;107759;-76
2023/04/28 00:24:10;;;;;;;16.00;9.50;;;;;;;2.58;58.54;100656.75;131249;1254;107467;-76
2023/04/28 00:27:15;;;;;;;17.50;10.10;;;;;;;2.53;58.77;100656.84;131222;1255;107483;-78
2023/04/28 00:30:21;;;;;;;16.50;9.00;;;;;;;2.50;58.81;100656.83;131100;1251;107498;-78
2023/04/28 00:33:27;;;;;;;19.50;9.50;;;;;;;2.46;58.89;100660.13;131075;1257;107349;-78
2023/04/28 00:36:32;;;;;;;16.30;9.50;;;;;;;2.39;58.91;100659.27;130896;1250;107538;-78
2023/04/28 00:39:39;;;;;;;16.30;9.20;;;;;;;2.34;58.91;100665.32;130944;1256;107517;-77
2023/04/28 00:42:44;;;;;;;16.50;9.50;;;;;;;2.31;59.03;100661.13;130973;1251;107526;-79
2023/04/28 00:45:51;;;;;;;16.80;10.20;;;;;;;2.27;59.24;100662.44;131153;1251;106541;-78
2023/04/28 00:48:57;;;;;;;16.60;10.00;;;;;;;2.22;59.30;100666.73;131086;1256;106769;-78
2023/04/28 00:52:06;;;;;;;18.00;10.00;;;;;;;2.19;59.31;100665.20;131075;1254;105596;-78
2023/04/28 00:55:15;;;;;;;18.20;10.20;;;;;;;2.14;59.36;100667.38;131032;1254;107527;-78
2023/04/28 00:58:20;;;;;;;16.20;9.80;;;;;;;2.09;59.41;100674.19;130967;1254;107535;-80
2023/04/28 01:01:26;;;;;;;19.80;9.90;;;;;;;2.04;59.40;100671.66;130957;1251;107542;-78
2023/04/28 01:04:33;;;;;;;17.90;10.80;;;;;;;2.00;59.55;100670.83;131060;1251;107510;-78
2023/04/28 01:07:38;;;;;;;18.30;10.70;;;;;;;1.99;59.79;100674.05;131150;1250;107340;-76
2023/04/28 01:10:46;;;;;;;15.50;9.20;;;;;;;1.99;59.82;100676.55;130978;1250;107436;-78
2023/04/28 01:14:00;;;;;;;17.40;9.90;;;;;;;1.94;59.81;100677.29;130972;1251;107390;-78
2023/04/28 01:17:07;;;;;;;18.50;10.50;;;;;;;1.86;59.62;100676.16;131101;1249;107420;-79
2023/04/28 01:20:13;;;;;;;16.20;10.00;;;;;;;1.81;59.98;100679.65;131043;1251;107543;-77
2023/04/28 01:23:19;;;;;;;18.80;10.30;;;;;;;1.82;59.98;100675.19;131144;1251;107441;-77
2023/04/28 01:26:25;;;;;;;19.60;10.20;;;;;;;1.84;60.05;100677.19;130997;1257;107552;-76
2023/04/28 01:29:31;;;;;;;23.30;11.70;;;;;;;1.85;60.08;100677.80;131066;1251;107568;-76
2023/04/28 01:32:37;;;;;;;29.10;14.00;;;;;;;1.86;59.89;100674.06;131344;1254;107459;-76
2023/04/28 01:35:42;;;;;;;20.20;10.80;;;;;;;1.88;60.16;100676.95;131137;1257;107531;-76
2023/04/28 01:38:49;;;;;;;18.20;10.20;;;;;;;1.93;60.09;100676.47;131031;1255;105710;-78
2023/04/28 01:41:54;;;;;;;15.20;9.20;;;;;;;1.95;60.19;100674.79;131271;1251;107520;-78
2023/04/28 01:45:00;;;;;;;15.20;9.40;;;;;;;1.97;60.10;100677.16;131271;1254;107508;-78
2023/04/28 01:48:06;;;;;;;15.80;9.10;;;;;;;1.96;60.15;100676.13;131173;1250;108065;-76
2023/04/28 01:51:11;;;;;;;16.40;9.30;;;;;;;1.95;60.03;100675.31;131154;1250;107566;-78
2023/04/28 01:54:17;;;;;;;14.70;8.90;;;;;;;1.93;60.20;100677.33;131008;1251;107442;-78
2023/04/28 01:57:22;;;;;;;19.30;10.30;;;;;;;1.93;60.27;100676.32;130924;1256;107525;-78
2023/04/28 02:00:28;;;;;;;18.00;9.80;;;;;;;1.90;60.28;100671.93;131037;1250;107468;-78
2023/04/28 02:03:34;;;;;;;16.80;9.90;;;;;;;1.85;60.37;100669.02;130994;1250;107528;-77
2023/04/28 02:06:41;;;;;;;17.70;9.70;;;;;;;1.80;60.33;100667.96;131018;1251;107436;-78
2023/04/28 02:09:46;;;;;;;16.90;10.20;;;;;;;1.74;60.44;100669.64;131132;1251;107403;-78
2023/04/28 02:12:52;;;;;;;16.90;10.20;;;;;;;1.71;60.54;100671.94;131193;1253;108164;-78
2023/04/28 02:16:01;;;;;;;18.90;10.90;;;;;;;1.62;60.42;100674.18;131231;1250;107398;-78
2023/04/28 02:19:07;;;;;;;19.90;10.80;;;;;;;1.55;60.61;100673.88;131396;1251;107516;-78
2023/04/28 02:22:12;;;;;;;19.80;10.70;;;;;;;1.50;60.80;100677.12;131292;1253;107549;-78
2023/04/28 02:25:19;;;;;;;20.50;11.70;;;;;;;1.47;60.54;100679.58;131240;1250;107374;-78
2023/04/28 02:28:25;;;;;;;21.40;11.70;;;;;;;1.42;60.82;100684.92;131302;1256;107253;-77
2023/04/28 02:31:31;;;;;;;20.80;11.70;;;;;;;1.38;60.80;100681.11;131245;1250;109307;-78
2023/04/28 02:34:37;;;;;;;21.00;11.80;;;;;;;1.35;60.79;100682.52;131411;1254;108104;-79
2023/04/28 02:37:42;;;;;;;21.90;12.60;;;;;;;1.32;60.87;100680.91;131170;1250;107603;-79
2023/04/28 02:40:48;;;;;;;21.00;11.90;;;;;;;1.30;60.91;100682.63;131345;1250;107487;-78
2023/04/28 02:43:53;;;;;;;20.40;11.80;;;;;;;1.26;60.84;100682.65;131178;1255;106659;-77
2023/04/28 02:47:00;;;;;;;22.00;12.30;;;;;;;1.20;60.88;100685.23;131004;1249;106981;-77
2023/04/28 02:50:09;;;;;;;27.00;13.90;;;;;;;1.17;60.87;100684.16;131082;1250;107393;-76
2023/04/28 02:53:14;;;;;;;41.10;19.10;;;;;;;1.14;61.09;100686.64;131104;1261;107512;-76
2023/04/28 02:56:20;;;;;;;43.80;19.20;;;;;;;1.13;61.09;100685.45;131040;1250;107329;-75
2023/04/28 02:59:26;;;;;;;34.30;16.30;;;;;;;1.12;61.18;100684.95;130978;1250;107379;-75
2023/04/28 03:02:31;;;;;;;28.20;13.70;;;;;;;1.10;61.16;100681.75;131110;1255;105991;-75
2023/04/28 03:05:37;;;;;;;32.10;15.30;;;;;;;1.07;61.17;100683.48;130988;1251;107542;-75
2023/04/28 03:08:42;;;;;;;30.30;15.60;;;;;;;1.07;61.17;100686.11;131145;1254;106535;-75
2023/04/28 03:11:48;;;;;;;34.30;15.80;;;;;;;1.09;61.31;100689.86;131182;1254;107549;-75
2023/04/28 03:14:53;;;;;;;28.50;14.20;;;;;;;1.11;61.23;100684.15;131180;1250;107504;-75
2023/04/28 03:17:59;;;;;;;27.40;13.50;;;;;;;1.15;61.29;100689.34;131121;1252;106137;-75
2023/04/28 03:21:05;;;;;;;26.30;13.30;;;;;;;1.13;61.31;100688.05;131080;1255;107192;-75
2023/04/28 03:24:10;;;;;;;22.50;12.90;;;;;;;1.11;61.44;100690.10;130983;1256;107662;-75
2023/04/28 03:27:17;;;;;;;23.20;13.00;;;;;;;1.07;61.37;100691.88;131212;1250;107372;-75
2023/04/28 03:30:22;;;;;;;21.80;12.40;;;;;;;1.05;61.38;100693.39;131152;1251;107492;-75
2023/04/28 03:33:28;;;;;;;24.00;13.20;;;;;;;1.06;61.54;100690.91;131046;1253;107455;-75
2023/04/28 03:36:33;;;;;;;20.40;12.30;;;;;;;1.06;61.33;100694.59;130988;1250;107384;-75
2023/04/28 03:39:45;;;;;;;23.50;12.80;;;;;;;1.08;61.71;100692.35;131010;1251;107384;-75
2023/04/28 03:42:51;;;;;;;20.20;12.50;;;;;;;1.15;61.66;100694.43;130999;1254;106516;-75
2023/04/28 03:46:05;;;;;;;22.60;12.90;;;;;;;1.17;61.58;100696.96;131066;1253;107347;-75
2023/04/28 03:49:11;;;;;;;23.90;13.60;;;;;;;1.16;61.68;100698.27;131340;1251;107495;-75
2023/04/28 03:52:17;;;;;;;23.10;12.50;;;;;;;1.26;61.71;100696.52;131040;1257;108156;-74
2023/04/28 03:55:24;;;;;;;21.30;12.60;;;;;;;1.40;61.77;100697.86;131342;1251;107403;-75
2023/04/28 03:58:30;;;;;;;23.60;13.70;;;;;;;1.49;61.88;100702.08;130963;1254;107515;-76
2023/04/28 04:01:35;;;;;;;24.10;13.60;;;;;;;1.60;61.75;100701.30;131391;1250;107279;-73
2023/04/28 04:04:40;;;;;;;25.70;14.40;;;;;;;1.73;61.91;100699.57;130973;1254;106523;-75
2023/04/28 04:07:47;;;;;;;28.30;16.60;;;;;;;1.82;61.79;100701.69;131009;1253;107398;-75
2023/04/28 04:10:53;;;;;;;25.10;14.80;;;;;;;1.88;61.80;100701.66;131106;1253;106206;-76
2023/04/28 04:13:59;;;;;;;25.30;13.50;;;;;;;1.97;61.87;100705.73;131046;1250;107401;-75
2023/04/28 04:17:05;;;;;;;27.70;15.10;;;;;;;2.06;61.96;100707.72;131031;1250;107371;-74
2023/04/28 04:20:12;;;;;;;24.20;14.90;;;;;;;2.15;62.11;100704.92;131263;1250;107535;-75
2023/04/28 04:23:17;;;;;;;26.20;14.90;;;;;;;2.27;62.09;100704.70;131032;1250;107275;-74
2023/04/28 04:26:23;;;;;;;25.00;14.80;;;;;;;2.42;62.08;100705.08;131305;1253;107527;-75
2023/04/28 04:29:30;;;;;;;26.20;15.10;;;;;;;2.61;62.20;100702.89;131012;1251;107408;-75
2023/04/28 04:32:38;;;;;;;24.40;14.80;;;;;;;2.89;62.40;100707.41;131128;1250;107261;-74
2023/04/28 04:35:43;;;;;;;26.00;14.80;;;;;;;3.17;62.42;100704.65;131123;1257;107514;-73
2023/04/28 04:38:49;;;;;;;23.70;13.20;;;;;;;3.47;62.36;100704.69;131020;1256;107493;-75
2023/04/28 04:41:56;;;;;;;29.10;15.30;;;;;;;3.80;62.35;100699.95;131114;1250;107480;-76
2023/04/28 04:45:12;;;;;;;28.60;15.60;;;;;;;4.16;62.46;100699.43;131109;1250;107431;-74
2023/04/28 04:48:17;;;;;;;26.20;15.80;;;;;;;4.46;62.32;100693.20;131840;1250;106765;-73
2023/04/28 04:51:23;;;;;;;27.90;16.20;;;;;;;4.73;62.35;100692.77;132370;1256;107572;-74
2023/04/28 04:54:29;;;;;;;25.70;16.80;;;;;;;5.03;62.39;100698.64;131023;1257;107260;-76
2023/04/28 04:57:34;;;;;;;25.70;16.20;;;;;;;5.30;62.38;100701.17;131185;1269;107324;-75
2023/04/28 05:00:50;;;;;;;28.50;16.50;;;;;;;5.56;62.53;100700.77;131159;1254;107242;-74
2023/04/28 05:03:56;;;;;;;25.10;17.10;;;;;;;5.78;62.67;100700.27;130992;1250;107565;-75
2023/04/28 05:07:01;;;;;;;28.00;18.10;;;;;;;5.99;62.91;100693.09;130932;1257;107539;-75
2023/04/28 05:10:11;;;;;;;27.80;17.90;;;;;;;6.21;62.78;100695.35;130959;1253;106549;-75
2023/04/28 05:13:17;;;;;;;26.90;18.10;;;;;;;6.42;62.75;100696.63;131024;1257;107281;-75
2023/04/28 05:16:23;;;;;;;30.80;17.40;;;;;;;6.61;63.08;100699.27;130988;1250;108125;-76
2023/04/28 05:19:38;;;;;;;28.70;17.40;;;;;;;6.80;63.32;100696.59;131137;1250;107372;-75
2023/04/28 05:22:45;;;;;;;27.70;18.50;;;;;;;6.97;63.32;100700.38;131033;1250;107478;-75
2023/04/28 05:25:51;;;;;;;30.50;18.20;;;;;;;7.14;63.62;100698.00;130937;1251;107558;-75
2023/04/28 05:28:56;;;;;;;31.40;18.90;;;;;;;7.34;63.48;100700.55;130981;1258;107239;-72
2023/04/28 05:32:02;;;;;;;28.30;18.00;;;;;;;7.53;63.36;100699.72;130924;1257;107571;-74
2023/04/28 05:35:08;;;;;;;27.10;18.10;;;;;;;7.71;63.26;100700.23;131125;1251;107502;-76
2023/04/28 05:38:14;;;;;;;24.00;15.60;;;;;;;7.89;63.40;100702.67;130914;1266;107249;-74
2023/04/28 05:41:21;;;;;;;24.00;15.20;;;;;;;8.04;62.79;100701.43;131084;1251;107439;-75
2023/04/28 05:44:26;;;;;;;20.80;13.10;;;;;;;8.18;62.42;100700.14;130916;1256;106666;-76
2023/04/28 05:47:32;;;;;;;19.00;11.80;;;;;;;8.27;61.85;100696.16;130998;1252;107508;-75
2023/04/28 05:50:37;;;;;;;17.30;11.20;;;;;;;8.36;61.77;100695.83;131041;1256;107620;-74
2023/04/28 05:53:47;;;;;;;16.80;11.20;;;;;;;8.46;61.74;100694.80;131197;1250;107491;-74
2023/04/28 05:56:54;;;;;;;14.10;9.80;;;;;;;8.55;61.50;100688.39;131173;1251;107365;-75
2023/04/28 05:59:59;;;;;;;15.40;8.10;;;;;;;8.64;61.36;100691.38;130890;1251;107604;-75
2023/04/28 06:03:05;;;;;;;11.40;7.30;;;;;;;8.71;61.20;100691.15;131049;1251;106591;-75
2023/04/28 06:06:12;;;;;;;12.20;7.60;;;;;;;8.79;61.10;100693.88;131296;1251;106472;-76
2023/04/28 06:09:17;;;;;;;13.60;6.90;;;;;;;8.85;60.80;100689.80;131119;1254;107536;-75
2023/04/28 06:12:22;;;;;;;9.10;6.00;;;;;;;8.90;60.50;100689.16;131320;1250;107630;-74
2023/04/28 06:15:30;;;;;;;10.90;5.60;;;;;;;8.96;60.12;100690.95;131114;1250;107434;-75
2023/04/28 06:18:35;;;;;;;8.20;5.10;;;;;;;9.01;59.81;100687.31;131096;1250;107276;-74
2023/04/28 06:21:42;;;;;;;7.00;4.10;;;;;;;9.07;59.18;100689.48;131015;1250;107398;-74
2023/04/28 06:24:48;;;;;;;4.80;3.40;;;;;;;9.12;58.91;100687.66;131087;1254;107524;-74
2023/04/28 06:27:57;;;;;;;5.60;3.80;;;;;;;9.16;58.69;100686.91;131340;1255;107494;-73
2023/04/28 06:31:03;;;;;;;5.90;3.50;;;;;;;9.21;58.52;100690.91;131173;1250;106425;-74
2023/04/28 06:34:08;;;;;;;3.70;2.80;;;;;;;9.23;56.29;100689.19;131204;1253;107501;-75
2023/04/28 06:37:15;;;;;;;6.20;3.80;;;;;;;9.22;57.04;100688.55;131050;1250;107532;-74
2023/04/28 06:40:20;;;;;;;5.80;3.30;;;;;;;9.29;57.13;100690.80;131090;1250;107230;-77
2023/04/28 06:43:32;;;;;;;7.10;3.80;;;;;;;9.34;57.29;100686.79;131064;1254;107422;-74
2023/04/28 06:46:46;;;;;;;4.50;3.40;;;;;;;9.40;57.17;100687.65;131129;1249;107390;-75
2023/04/28 06:49:52;;;;;;;5.90;3.60;;;;;;;9.48;56.87;100686.69;131069;1250;107559;-75
2023/04/28 06:52:58;;;;;;;4.80;3.00;;;;;;;9.55;56.76;100688.00;131035;1250;107327;-76
2023/04/28 06:56:04;;;;;;;5.80;3.10;;;;;;;9.62;56.40;100689.98;131004;1253;107514;-75
2023/04/28 06:59:09;;;;;;;9.00;3.60;;;;;;;9.69;56.45;100690.27;131288;1251;107622;-75
2023/04/28 07:02:15;;;;;;;4.70;3.10;;;;;;;9.76;55.73;100688.92;131083;1256;107477;-73
2023/04/28 07:05:21;;;;;;;6.30;3.40;;;;;;;9.86;55.99;100686.14;131206;1262;107421;-75
2023/04/28 07:08:29;;;;;;;5.10;3.10;;;;;;;10.00;55.38;100682.16;131061;1250;107299;-76
2023/04/28 07:11:34;;;;;;;5.50;3.50;;;;;;;10.16;55.56;100683.42;131006;1251;107378;-75
2023/04/28 07:14:40;;;;;;;7.40;4.10;;;;;;;10.30;55.09;100677.52;131097;1253;107376;-75
2023/04/28 07:17:45;;;;;;;7.40;4.40;;;;;;;10.37;55.11;100677.45;131033;1254;107510;-75
2023/04/28 07:20:51;;;;;;;9.00;4.70;;;;;;;10.45;54.67;100673.14;131104;1254;107451;-74
2023/04/28 07:23:56;;;;;;;6.90;4.20;;;;;;;10.54;54.89;100674.95;131226;1251;107254;-73
2023/04/28 07:27:02;;;;;;;6.30;4.30;;;;;;;10.67;55.15;100672.48;131190;1253;107537;-73
2023/04/28 07:30:09;;;;;;;6.10;4.30;;;;;;;10.84;54.10;100666.12;131216;1253;106534;-73
2023/04/28 07:33:15;;;;;;;8.10;4.20;;;;;;;11.01;54.29;100662.89;131389;1254;107718;-73
2023/04/28 07:36:20;;;;;;;6.40;4.30;;;;;;;11.20;53.64;100663.47;131078;1253;107491;-74
2023/04/28 07:39:26;;;;;;;7.40;4.90;;;;;;;11.35;53.50;100659.63;131145;1253;107649;-74
2023/04/28 07:42:31;;;;;;;6.50;4.00;;;;;;;11.60;53.95;100653.51;131100;1253;107584;-73
2023/04/28 07:45:38;;;;;;;7.40;4.40;;;;;;;11.90;53.48;100649.02;131156;1251;107606;-74
2023/04/28 07:48:44;;;;;;;6.40;4.30;;;;;;;12.14;52.68;100644.42;131241;1255;107250;-74
2023/04/28 07:51:52;;;;;;;6.00;4.00;;;;;;;12.34;52.30;100645.31;131079;1250;107258;-75
2023/04/28 07:54:58;;;;;;;6.00;4.10;;;;;;;12.39;49.54;100647.10;131119;1256;107532;-75
2023/04/28 07:58:03;;;;;;;5.90;3.90;;;;;;;12.41;51.75;100641.05;131059;1266;107250;-75
2023/04/28 08:01:10;;;;;;;6.80;4.60;;;;;;;12.52;51.63;100643.88;131241;1250;107381;-75
2023/04/28 08:04:16;;;;;;;8.10;4.20;;;;;;;12.39;48.26;100642.32;131370;1253;107535;-75
2023/04/28 08:07:21;;;;;;;5.20;4.00;;;;;;;12.17;49.90;100645.91;131239;1254;107555;-75
2023/04/28 08:10:27;;;;;;;6.30;4.30;;;;;;;12.07;50.21;100645.75;131160;1257;107535;-73
2023/04/28 08:13:34;;;;;;;5.50;4.10;;;;;;;11.99;49.20;100646.81;131204;1251;107575;-74
2023/04/28 08:16:40;;;;;;;6.00;4.20;;;;;;;11.98;50.19;100641.46;131092;1251;106411;-74
2023/04/28 08:19:46;;;;;;;6.30;4.30;;;;;;;12.06;50.34;100643.67;131335;1253;107540;-74
2023/04/28 08:22:52;;;;;;;6.90;4.10;;;;;;;12.13;50.29;100642.77;131260;1253;107535;-74
2023/04/28 08:25:57;;;;;;;5.40;3.90;;;;;;;12.14;49.47;100639.99;130933;1253;107563;-74
2023/04/28 08:29:03;;;;;;;6.30;4.10;;;;;;;12.06;46.09;100637.65;131000;1256;107379;-74
2023/04/28 08:32:08;;;;;;;6.50;4.00;;;;;;;11.93;48.31;100635.56;131117;1253;107531;-74
2023/04/28 08:35:14;;;;;;;6.00;3.80;;;;;;;12.00;49.02;100635.35;131103;1250;107530;-74
2023/04/28 08:38:22;;;;;;;7.70;4.10;;;;;;;12.10;48.81;100633.48;131024;1250;107524;-73
2023/04/28 08:41:31;;;;;;;7.00;4.10;;;;;;;12.23;49.05;100626.63;131082;1253;107510;-74
2023/04/28 08:44:40;;;;;;;6.00;4.00;;;;;;;12.37;48.45;100621.80;131129;1256;107458;-73
2023/04/28 08:47:49;;;;;;;5.00;3.90;;;;;;;12.43;48.62;100623.17;131254;1256;107501;-73
2023/04/28 08:50:56;;;;;;;7.70;4.10;;;;;;;12.47;48.37;100627.42;131050;1265;107357;-74
2023/04/28 08:54:04;;;;;;;6.00;4.00;;;;;;;12.54;48.45;100627.70;131134;1253;107482;-74
2023/04/28 08:57:11;;;;;;;6.80;4.60;;;;;;;12.66;48.48;100624.91;131361;1253;108563;-74
2023/04/28 09:00:17;;;;;;;7.60;4.40;;;;;;;12.88;48.11;100615.55;131113;1250;107482;-74
2023/04/28 09:03:23;;;;;;;6.30;4.50;;;;;;;13.15;47.86;100611.50;131120;1250;107536;-75
2023/04/28 09:06:34;;;;;;;5.00;4.00;;;;;;;13.39;47.49;100608.98;131290;1254;106895;-74
2023/04/28 09:09:40;;;;;;;6.70;4.50;;;;;;;13.64;47.81;100600.26;131159;1251;107500;-74
2023/04/28 09:12:46;;;;;;;7.30;4.60;;;;;;;13.82;47.83;100601.36;131261;1253;107538;-74
2023/04/28 09:15:59;;;;;;;5.60;4.50;;;;;;;14.01;47.53;100594.84;131331;1253;107232;-74
2023/04/28 09:19:05;;;;;;;5.70;4.70;;;;;;;14.23;47.20;100598.06;131264;1251;107271;-74
2023/04/28 09:22:11;;;;;;;6.80;4.80;;;;;;;14.40;46.71;100593.27;131300;1251;107265;-74
2023/04/28 09:25:17;;;;;;;4.80;4.10;;;;;;;14.56;46.67;100585.77;131111;1266;107331;-74
2023/04/28 09:28:23;;;;;;;5.50;4.40;;;;;;;14.76;46.38;100583.50;131097;1265;107543;-74
2023/04/28 09:31:29;;;;;;;6.80;4.40;;;;;;;14.95;46.24;100581.45;131385;1265;107465;-74
2023/04/28 09:34:45;;;;;;;6.50;4.60;;;;;;;15.09;46.01;100579.85;131124;1250;107352;-74
2023/04/28 09:37:59;;;;;;;7.90;5.00;;;;;;;15.21;46.34;100583.50;131141;1250;107233;-74
2023/04/28 09:41:05;;;;;;;6.20;4.50;;;;;;;15.27;45.96;100579.04;130998;1253;107480;-74
2023/04/28 09:44:20;;;;;;;6.60;5.20;;;;;;;15.13;44.67;100576.89;131057;1250;107427;-74
2023/04/28 09:47:25;;;;;;;8.00;5.30;;;;;;;14.95;45.15;100575.14;131101;1265;107249;-75
2023/04/28 09:50:41;;;;;;;6.60;4.70;;;;;;;14.99;45.07;100569.21;131269;1253;108128;-74
2023/04/28 09:53:46;;;;;;;5.00;4.30;;;;;;;15.03;45.24;100565.06;131265;1250;108341;-74
2023/04/28 09:56:54;;;;;;;7.60;5.50;;;;;;;15.10;45.26;100561.36;131344;1251;107367;-74
2023/04/28 10:00:00;;;;;;;6.00;4.90;;;;;;;15.20;45.00;100558.92;131332;1253;106259;-74
2023/04/28 10:03:08;;;;;;;7.00;4.60;;;;;;;15.25;44.71;100552.94;131305;1250;107813;-74
2023/04/28 10:06:13;;;;;;;6.80;5.00;;;;;;;15.38;44.55;100537.13;131257;1254;112463;-74
2023/04/28 10:09:25;;;;;;;8.90;5.60;;;;;;;15.38;43.83;100543.14;131312;1250;107529;-74
2023/04/28 10:12:32;;;;;;;6.30;5.10;;;;;;;15.23;43.29;100538.67;131383;1256;107556;-74
2023/04/28 10:15:38;;;;;;;6.80;5.40;;;;;;;15.22;44.29;100535.67;131330;1250;107235;-74
2023/04/28 10:18:45;;;;;;;7.10;5.20;;;;;;;15.23;44.34;100534.73;131318;1250;107541;-74
2023/04/28 10:22:02;;;;;;;7.80;5.60;;;;;;;15.17;43.97;100532.70;131322;1262;107526;-74
2023/04/28 10:25:25;;;;;;;7.80;5.00;;;;;;;15.13;43.40;100533.55;131273;1256;107526;-74
2023/04/28 10:28:29;;;;;;;;;;;;;;;14.99;43.89;100529.25;131310;1250;106729;-74
2023/04/28 10:31:35;;;;;;;8.70;6.00;;;;;;;14.91;43.58;100524.84;131265;1260;107240;-74
2023/04/28 10:34:41;;;;;;;9.80;6.30;;;;;;;14.87;43.55;100522.44;131295;1253;107540;-74
2023/04/28 10:38:07;;;;;;;8.10;5.50;;;;;;;14.91;43.15;100519.70;131349;1249;107373;-74
2023/04/28 10:41:32;;;;;;;6.90;4.80;;;;;;;15.00;43.39;100514.52;131330;1255;107344;-74
2023/04/28 10:44:44;;;;;;;6.20;5.20;;;;;;;15.19;43.21;100506.05;131253;1250;107602;-74
2023/04/28 10:48:05;;;;;;;7.70;4.80;;;;;;;15.29;43.29;100508.34;131289;1253;107411;-74
2023/04/28 10:51:32;;;;;;;8.00;5.80;;;;;;;15.40;43.17;100506.20;131390;1262;107110;-74
2023/04/28 10:54:37;;;;;;;7.60;5.60;;;;;;;15.53;42.63;100504.18;131157;1250;107243;-74
2023/04/28 10:57:43;;;;;;;8.50;5.80;;;;;;;15.57;41.72;100501.70;131294;1254;107404;-74
2023/04/28 11:00:49;;;;;;;9.80;7.10;;;;;;;15.63;42.10;100492.08;131195;1253;107550;-74
2023/04/28 11:04:01;;;;;;;8.00;5.80;;;;;;;15.78;42.24;100484.91;131134;1253;107790;-74
2023/04/28 11:07:13;;;;;;;7.70;5.40;;;;;;;15.90;42.19;100490.36;131244;1254;107234;-74
2023/04/28 11:10:19;;;;;;;7.00;5.00;;;;;;;15.91;41.97;100490.05;131254;1254;108174;-74
2023/04/28 11:13:32;;;;;;;7.30;5.20;;;;;;;15.97;42.28;100484.65;131086;1253;106013;-74
2023/04/28 11:16:50;;;;;;;6.60;5.00;;;;;;;16.12;42.23;100479.48;131046;1261;107268;-73
2023/04/28 11:19:59;;;;;;;6.80;5.40;;;;;;;16.19;42.06;100477.98;131233;1256;107537;-74
2023/04/28 11:23:07;;;;;;;6.80;5.50;;;;;;;16.12;41.76;100477.01;131173;1253;105887;-73
2023/04/28 11:26:13;;;;;;;6.00;4.90;;;;;;;16.03;41.57;100466.94;131026;1253;107599;-73
2023/04/28 11:29:30;;;;;;;6.90;5.00;;;;;;;15.94;41.45;100468.49;131220;1250;107249;-74
2023/04/28 11:32:38;;;;;;;6.30;5.40;;;;;;;15.87;41.53;100470.63;131016;1253;107256;-74
2023/04/28 11:35:45;;;;;;;8.80;5.60;;;;;;;15.86;41.07;100466.42;131118;1265;108128;-74
2023/04/28 11:38:51;;;;;;;7.10;5.20;;;;;;;15.94;41.59;100464.36;131016;1253;106800;-74
2023/04/28 11:41:57;;;;;;;8.30;5.00;;;;;;;16.11;41.40;100460.55;131052;1250;107306;-74
2023/04/28 11:45:03;;;;;;;6.20;5.20;;;;;;;16.15;41.14;100457.38;131043;1253;107625;-74
2023/04/28 11:51:45;;;;;;;10.20;7.40;;;;;;;16.20;40.80;100453.77;127104;1293;636371;-75
2023/04/28 11:54:56;;;;;;;8.90;6.10;;;;;;;16.27;40.94;100454.66;130077;1263;107389;-74
2023/04/28 11:58:22;;;;;;;7.00;6.00;;;;;;;16.32;40.76;100444.27;130105;1267;107114;-74
2023/04/28 12:01:28;;;;;;;7.80;5.10;;;;;;;16.29;40.82;100439.52;130085;1276;107267;-76
2023/04/28 12:04:35;;;;;;;8.40;5.80;;;;;;;16.23;40.55;100437.20;130182;1275;121515;-74
2023/04/28 12:07:44;;;;;;;9.10;5.40;;;;;;;16.19;39.89;100428.80;130326;1261;107490;-74
2023/04/28 12:11:11;;;;;;;9.40;5.80;;;;;;;16.22;40.67;100420.31;130281;1261;107763;-74
2023/04/28 12:14:17;;;;;;;9.50;5.80;;;;;;;16.34;40.30;100424.55;130211;1261;107075;-74
2023/04/28 12:17:27;;;;;;;8.90;6.00;;;;;;;16.35;40.38;100424.06;130238;1260;107508;-74
2023/04/28 12:20:39;;;;;;;7.80;6.50;;;;;;;16.42;40.12;100428.30;130337;1263;107404;-74
2023/04/28 12:23:45;;;;;;;9.40;7.90;;;;;;;16.44;40.03;100424.77;130365;1260;107217;-74
2023/04/28 12:26:50;;;;;;;8.10;6.50;;;;;;;16.36;39.12;100422.02;130265;1261;107717;-74
2023/04/28 12:29:57;;;;;;;8.30;5.60;;;;;;;16.16;38.94;100413.87;130278;1263;106749;-74
2023/04/28 12:33:03;;;;;;;8.20;6.10;;;;;;;16.13;39.82;100415.15;130238;1276;107258;-74
2023/04/28 12:36:08;;;;;;;6.50;5.60;;;;;;;16.16;39.53;100409.96;130378;1271;107505;-74
2023/04/28 12:39:18;;;;;;;7.20;5.40;;;;;;;16.19;39.78;100405.30;130336;1263;107543;-74
2023/04/28 12:42:24;;;;;;;8.30;6.10;;;;;;;16.20;39.62;100396.34;130322;1266;107364;-74
2023/04/28 12:45:31;;;;;;;7.80;5.80;;;;;;;16.27;39.95;100392.90;130229;1266;107627;-74
2023/04/28 12:48:37;;;;;;;8.60;5.90;;;;;;;16.31;39.62;100384.61;130227;1263;108124;-74
2023/04/28 12:51:42;;;;;;;67.50;35.40;;;;;;;16.27;39.71;100381.70;130260;1266;109659;-74
2023/04/28 12:54:49;;;;;;;242.00;140.70;;;;;;;16.21;39.50;100382.66;130488;1260;107533;-74
2023/04/28 12:57:54;;;;;;;203.40;136.50;;;;;;;16.23;40.01;100380.66;130629;1257;106027;-74
2023/04/28 13:01:00;;;;;;;39.40;25.50;;;;;;;16.27;39.12;100382.50;130670;1262;107165;-74
2023/04/28 13:04:05;;;;;;;16.90;11.20;;;;;;;16.10;37.62;100371.46;130549;1263;107538;-74
2023/04/28 13:07:11;;;;;;;8.50;6.80;;;;;;;15.97;39.46;100363.67;130533;1260;107244;-74
2023/04/28 13:10:17;;;;;;;7.50;5.80;;;;;;;16.04;39.65;100363.55;130508;1257;107464;-74
2023/04/28 13:13:23;;;;;;;10.60;6.00;;;;;;;16.10;39.82;100360.77;130514;1257;107223;-75
2023/04/28 13:16:29;;;;;;;8.50;5.60;;;;;;;16.16;39.27;100357.52;130579;1257;107363;-74
2023/04/28 13:19:34;;;;;;;7.40;6.60;;;;;;;16.21;39.42;100358.85;130526;1260;108101;-74
2023/04/28 13:22:40;;;;;;;9.10;7.80;;;;;;;16.20;39.04;100349.30;130610;1270;107273;-74
2023/04/28 13:25:46;;;;;;;9.00;7.20;;;;;;;16.14;38.78;100347.32;130646;1260;106792;-74
2023/04/28 13:28:52;;;;;;;6.90;5.80;;;;;;;16.15;38.84;100346.27;130523;1258;107355;-74
2023/04/28 13:31:57;;;;;;;6.00;5.30;;;;;;;16.16;39.03;100347.43;130624;1269;107249;-74
2023/04/28 13:35:03;;;;;;;11.50;9.20;;;;;;;16.21;38.93;100344.85;130546;1257;107298;-74
2023/04/28 13:38:08;;;;;;;12.10;7.60;;;;;;;16.20;38.01;100340.39;130591;1257;107476;-74
2023/04/28 13:41:14;;;;;;;21.30;14.20;;;;;;;16.14;38.16;100332.86;130593;1257;106418;-74
2023/04/28 13:44:19;;;;;;;10.80;8.80;;;;;;;16.17;39.00;100329.77;131013;1254;107537;-74
2023/04/28 13:47:25;;;;;;;18.80;14.40;;;;;;;16.19;39.04;100328.21;130978;1254;107524;-75
2023/04/28 13:50:30;;;;;;;7.70;6.70;;;;;;;16.12;39.16;100326.63;130982;1257;106564;-74
2023/04/28 13:53:37;;;;;;;7.70;5.80;;;;;;;16.02;38.89;100320.95;131058;1265;107902;-74
2023/04/28 13:56:43;;;;;;;9.30;5.50;;;;;;;15.93;39.16;100316.98;130957;1256;107492;-74
2023/04/28 13:59:48;;;;;;;6.20;5.40;;;;;;;15.88;38.97;100312.45;130939;1251;107369;-74
2023/04/28 14:02:54;;;;;;;6.50;5.30;;;;;;;15.82;38.75;100305.98;130900;1256;107531;-74
2023/04/28 14:06:00;;;;;;;7.30;5.80;;;;;;;15.79;39.03;100306.65;130958;1254;107386;-75
2023/04/28 14:09:06;;;;;;;7.30;5.70;;;;;;;15.79;38.90;100301.16;130963;1256;106343;-74
2023/04/28 14:12:14;;;;;;;16.20;12.00;;;;;;;15.80;38.71;100298.15;130922;1256;106744;-74